This is the latest recevied weather packets stored in our database for station/object JA6CFI-13. If no packets are shown the sender has not sent any weather packets the latest 10 day(s).
| Time | Temp. | Humidity | Pressure | Rain* | Wind** | Luminosity | Snow |
|---|---|---|---|---|---|---|---|
| 1778135001 | 24.44° C | 67% | 1010.4 hPa | 0 mm | - | - | - |
| 1778134325 | 24.44° C | 66% | 1010.5 hPa | 0 mm | - | - | - |
| 1778134223 | 24.44° C | 66% | 1010.6 hPa | 0 mm | - | - | - |
| 1778133443 | 25° C | 64% | 1010.6 hPa | 0 mm | - | - | - |
| 1778132662 | 26.67° C | 61% | 1010.5 hPa | 0 mm | - | - | - |
| 1778132523 | 26.67° C | 60% | 1010.5 hPa | 0 mm | - | - | - |
| 1778131881 | 28.33° C | 57% | 1010.4 hPa | 0 mm | - | - | - |
| 1778131101 | 28.33° C | 57% | 1010.7 hPa | 0 mm | - | - | - |
| 1778130724 | 27.78° C | 57% | 1010.7 hPa | 0 mm | - | - | - |
| 1778130323 | 27.78° C | 57% | 1010.9 hPa | 0 mm | - | - | - |
| 1778129542 | 27.78° C | 58% | 1010.9 hPa | 0 mm | - | - | - |
| 1778128925 | 26.67° C | 61% | 1011.1 hPa | 0 mm | - | - | - |
| 1778128761 | 26.11° C | 62% | 1011.1 hPa | 0 mm | - | - | - |
| 1778127983 | 26.11° C | 61% | 1011.4 hPa | 0 mm | - | - | - |
| 1778127203 | 25.56° C | 61% | 1011.5 hPa | 0 mm | - | - | - |
| 1778127124 | 26.11° C | 61% | 1011.5 hPa | 0 mm | - | - | - |
| 1778126422 | 26.11° C | 60% | 1011.6 hPa | 0 mm | - | - | - |
| 1778125642 | 27.22° C | 59% | 1011.7 hPa | 0 mm | - | - | - |
| 1778124861 | 26.67° C | 59% | 1011.9 hPa | 0 mm | - | - | - |
| 1778124083 | 26.11° C | 60% | 1012.1 hPa | 0 mm | - | - | - |
| 1778123302 | 26.11° C | 60% | 1012.3 hPa | 0 mm | - | - | - |
| 1778122521 | 26.11° C | 59% | 1012.6 hPa | 0 mm | - | - | - |
| 1778121741 | 26.11° C | 60% | 1012.7 hPa | 0 mm | - | - | - |
| 1778120963 | 25.56° C | 60% | 1012.8 hPa | 0 mm | - | - | - |
| 1778120182 | 26.11° C | 59% | 1013.1 hPa | 0 mm | - | - | - |
* Rain latest hour (hover to see other rain measurements)
** Current wind speed in m/s (hover to see current wind gust speed)